createdAt,value
2019-03-26T00:00:24.499Z,34.23
2019-03-26T00:02:59.193Z,30.40
2019-03-26T00:05:33.147Z,29.87
2019-03-26T00:08:06.910Z,37.42
2019-03-26T00:10:39.435Z,44.58
2019-03-26T00:13:11.407Z,35.83
2019-03-26T00:15:44.283Z,37.93
2019-03-26T00:18:22.011Z,28.83
2019-03-26T00:20:54.863Z,29.63
2019-03-26T00:23:27.837Z,37.88
2019-03-26T00:26:00.430Z,27.95
2019-03-26T00:28:33.218Z,36.03
2019-03-26T00:31:07.807Z,40.95
2019-03-26T00:33:42.084Z,30.47
2019-03-26T00:36:17.357Z,25.75
2019-03-26T00:38:57.191Z,26.80
2019-03-26T00:41:30.406Z,29.00
2019-03-26T00:44:05.877Z,25.55
2019-03-26T00:46:38.798Z,25.12
2019-03-26T00:49:13.910Z,23.80
2019-03-26T00:51:45.767Z,24.32
2019-03-26T00:54:23.846Z,24.52
2019-03-26T00:56:56.839Z,25.68
2019-03-26T00:59:30.607Z,24.32
2019-03-26T01:02:05.221Z,25.23
2019-03-26T01:04:38.171Z,23.73
2019-03-26T01:07:11.299Z,36.53
2019-03-26T01:09:46.284Z,27.80
2019-03-26T01:12:19.616Z,34.00
2019-03-26T01:14:52.692Z,35.38
2019-03-26T01:17:25.297Z,38.83
2019-03-26T01:19:58.184Z,38.65
2019-03-26T01:22:30.937Z,35.15
2019-03-26T01:25:02.551Z,35.20
2019-03-26T01:27:37.004Z,39.30
2019-03-26T01:30:11.557Z,37.73
2019-03-26T01:32:46.127Z,38.17
2019-03-26T01:35:24.071Z,37.33
2019-03-26T01:37:59.542Z,37.40
2019-03-26T01:40:32.298Z,34.43
2019-03-26T01:43:04.919Z,35.52
2019-03-26T01:45:39.734Z,39.45
2019-03-26T01:48:12.413Z,35.68
2019-03-26T01:50:45.517Z,35.88
2019-03-26T01:53:20.203Z,34.10
2019-03-26T01:55:52.262Z,35.80
2019-03-26T01:58:24.513Z,35.95
2019-03-26T02:01:02.369Z,34.65
2019-03-26T02:03:36.976Z,32.38
2019-03-26T02:06:11.334Z,42.97
2019-03-26T02:08:43.995Z,34.50
2019-03-26T02:11:15.887Z,31.55
2019-03-26T02:13:51.026Z,32.95
2019-03-26T02:16:23.701Z,32.58
2019-03-26T02:18:57.864Z,36.17
2019-03-26T02:21:29.775Z,34.30
2019-03-26T02:24:04.361Z,35.58
2019-03-26T02:26:36.021Z,37.40
2019-03-26T02:29:08.639Z,38.30
2019-03-26T02:31:41.608Z,37.25
2019-03-26T02:34:17.137Z,39.38
2019-03-26T02:36:49.987Z,39.60
2019-03-26T02:39:22.775Z,37.78
2019-03-26T02:41:55.739Z,37.35
2019-03-26T02:44:30.181Z,36.48
2019-03-26T02:47:01.788Z,36.60
2019-03-26T02:49:35.884Z,37.25
2019-03-26T02:52:10.627Z,35.35
2019-03-26T02:54:43.584Z,34.05
2019-03-26T02:57:15.233Z,32.23
2019-03-26T02:59:48.019Z,32.40
2019-03-26T03:02:22.379Z,34.67
2019-03-26T03:04:54.990Z,34.30
2019-03-26T03:07:27.919Z,35.08
2019-03-26T03:10:02.475Z,34.27
2019-03-26T03:12:35.175Z,27.37
2019-03-26T03:15:10.769Z,27.10
2019-03-26T03:17:42.607Z,27.13
2019-03-26T03:20:15.294Z,27.70
2019-03-26T03:22:48.108Z,30.35
2019-03-26T03:25:23.916Z,28.98
2019-03-26T03:27:58.324Z,26.73
2019-03-26T03:30:29.949Z,26.30
2019-03-26T03:33:02.799Z,23.75
2019-03-26T03:35:51.345Z,24.67
2019-03-26T03:40:45.028Z,23.73
2019-03-26T03:43:18.006Z,25.08
2019-03-26T03:45:51.355Z,26.77
2019-03-26T03:48:24.496Z,27.37
2019-03-26T03:50:57.635Z,26.45
2019-03-26T03:53:30.377Z,25.32
2019-03-26T03:56:04.807Z,26.65
2019-03-26T03:58:37.438Z,25.63
2019-03-26T04:01:15.231Z,24.47
2019-03-26T04:03:48.035Z,25.50
2019-03-26T04:06:21.247Z,24.25
2019-03-26T04:08:54.417Z,23.98
2019-03-26T04:14:22.190Z,24.77
2019-03-26T04:16:59.330Z,23.85
2019-03-26T04:19:47.379Z,23.42
2019-03-26T04:22:19.290Z,22.30
2019-03-26T04:24:51.797Z,22.48
2019-03-26T04:27:26.110Z,22.87
2019-03-26T04:29:58.824Z,22.60
2019-03-26T04:32:31.697Z,23.85
2019-03-26T04:35:03.273Z,23.22
2019-03-26T04:37:37.582Z,22.15
2019-03-26T04:40:11.285Z,21.53
2019-03-26T04:42:45.803Z,23.15
2019-03-26T04:45:18.710Z,22.15
2019-03-26T04:47:51.378Z,23.75
2019-03-26T04:50:24.442Z,23.15
2019-03-26T04:52:59.798Z,23.45
2019-03-26T04:55:32.239Z,23.57
2019-03-26T04:58:05.459Z,23.35
2019-03-26T05:00:40.097Z,23.10
2019-03-26T05:03:12.144Z,23.75
2019-03-26T05:05:45.801Z,23.95
2019-03-26T05:08:17.362Z,23.70
2019-03-26T05:10:51.600Z,24.80
2019-03-26T05:13:24.093Z,24.87
2019-03-26T05:15:55.738Z,23.12
2019-03-26T05:18:31.111Z,23.15
2019-03-26T05:21:03.738Z,24.10
2019-03-26T05:23:37.590Z,25.10
2019-03-26T05:26:10.265Z,24.35
2019-03-26T05:28:44.931Z,23.45
2019-03-26T05:31:16.637Z,23.22
2019-03-26T05:33:49.673Z,22.82
2019-03-26T05:36:21.373Z,22.32
2019-03-26T05:38:55.946Z,22.15
2019-03-26T05:41:30.375Z,20.60
2019-03-26T05:44:03.270Z,20.37
2019-03-26T05:46:38.742Z,19.42
2019-03-26T05:49:11.996Z,19.92
2019-03-26T05:51:44.824Z,20.20
2019-03-26T05:54:17.488Z,19.48
2019-03-26T05:56:50.622Z,19.42
2019-03-26T05:59:25.212Z,19.35
2019-03-26T06:01:57.949Z,19.02
2019-03-26T06:04:29.856Z,19.57
2019-03-26T06:07:05.160Z,19.75
2019-03-26T06:09:39.068Z,18.03
2019-03-26T06:12:12.320Z,18.02
2019-03-26T06:14:45.264Z,18.92
2019-03-26T06:17:16.925Z,19.10
2019-03-26T06:19:49.519Z,18.98
2019-03-26T06:22:21.370Z,18.45
2019-03-26T06:24:55.750Z,18.27
2019-03-26T06:27:30.356Z,20.02
2019-03-26T06:30:03.190Z,18.15
2019-03-26T06:32:35.247Z,18.60
2019-03-26T06:35:12.146Z,19.32
2019-03-26T06:37:48.111Z,18.87
2019-03-26T06:40:20.825Z,19.07
2019-03-26T06:42:53.822Z,18.95
2019-03-26T06:45:27.038Z,18.62
2019-03-26T06:48:00.068Z,18.25
2019-03-26T06:50:31.887Z,18.92
2019-03-26T06:53:04.661Z,18.95
2019-03-26T06:55:37.595Z,19.00
2019-03-26T06:58:11.251Z,17.30
2019-03-26T07:00:43.121Z,17.92
2019-03-26T07:03:16.819Z,17.50
2019-03-26T07:05:52.709Z,18.25
2019-03-26T07:08:56.036Z,18.67
2019-03-26T07:11:30.581Z,17.80
2019-03-26T07:14:09.713Z,19.15
2019-03-26T07:16:42.654Z,18.67
2019-03-26T07:19:17.021Z,18.00
2019-03-26T07:21:53.285Z,19.15
2019-03-26T07:24:28.017Z,18.45
2019-03-26T07:27:00.040Z,19.32
2019-03-26T07:29:32.715Z,18.95
2019-03-26T07:32:05.540Z,18.23
2019-03-26T07:34:40.303Z,18.70
2019-03-26T07:37:12.888Z,18.77
2019-03-26T07:39:45.404Z,18.48
2019-03-26T07:42:18.323Z,17.90
2019-03-26T07:44:50.055Z,18.73
2019-03-26T07:47:22.930Z,18.12
2019-03-26T07:49:55.496Z,18.50
2019-03-26T07:52:29.882Z,19.00
2019-03-26T07:55:02.699Z,17.85
2019-03-26T07:57:35.140Z,18.73
2019-03-26T08:00:10.631Z,19.32
2019-03-26T08:02:43.012Z,18.70
2019-03-26T08:05:29.235Z,18.48
2019-03-26T08:07:58.144Z,18.23
2019-03-26T08:10:28.993Z,17.85
2019-03-26T08:13:03.658Z,18.75
2019-03-26T08:15:38.814Z,18.73
2019-03-26T08:18:10.475Z,19.23
2019-03-26T08:20:57.403Z,18.17
2019-03-26T08:23:29.523Z,19.32
2019-03-26T08:26:04.070Z,19.52
2019-03-26T08:31:31.445Z,18.92
2019-03-26T08:34:17.977Z,18.42
2019-03-26T08:36:52.716Z,19.25
2019-03-26T08:42:02.130Z,18.75
2019-03-26T08:44:36.665Z,19.00
2019-03-26T08:47:35.098Z,18.98
2019-03-26T08:50:11.134Z,17.82
2019-03-26T08:52:43.978Z,18.42
2019-03-26T08:55:17.702Z,20.68
2019-03-26T08:57:57.234Z,18.10
2019-03-26T09:00:32.026Z,19.65
2019-03-26T09:03:04.132Z,18.98
2019-03-26T09:05:38.076Z,18.67
2019-03-26T09:08:24.451Z,19.37
2019-03-26T09:10:51.615Z,17.95
2019-03-26T09:13:20.666Z,19.55
2019-03-26T09:15:55.457Z,19.27
2019-03-26T09:20:59.062Z,18.20
2019-03-26T09:23:36.883Z,19.02
2019-03-26T09:26:13.404Z,19.23
2019-03-26T09:28:49.320Z,18.65
2019-03-26T09:31:22.354Z,18.73
2019-03-26T09:33:55.152Z,18.42
2019-03-26T09:39:25.413Z,18.37
2019-03-26T09:41:59.215Z,18.93
2019-03-26T09:44:39.254Z,16.73
2019-03-26T09:47:16.341Z,17.35
2019-03-26T09:49:46.195Z,18.07
2019-03-26T09:52:20.721Z,18.15
2019-03-26T09:54:53.488Z,18.62
2019-03-26T09:57:25.624Z,18.00
2019-03-26T09:59:58.488Z,18.57
2019-03-26T10:02:31.068Z,18.30
2019-03-26T10:05:04.154Z,18.25
2019-03-26T10:07:38.505Z,18.40
2019-03-26T10:10:10.129Z,18.65
2019-03-26T10:12:44.654Z,17.60
2019-03-26T10:15:21.562Z,17.55
2019-03-26T10:17:56.091Z,18.32
2019-03-26T10:20:31.777Z,18.65
2019-03-26T10:23:14.791Z,18.32
2019-03-26T10:25:40.303Z,17.90
2019-03-26T10:28:18.791Z,18.25
2019-03-26T10:30:51.340Z,17.77
2019-03-26T10:33:23.236Z,17.80
2019-03-26T10:35:56.671Z,17.23
2019-03-26T10:38:35.754Z,18.07
2019-03-26T10:41:08.100Z,19.50
2019-03-26T10:43:42.734Z,18.10
2019-03-26T10:46:16.925Z,17.95
2019-03-26T10:48:49.722Z,18.73
2019-03-26T10:51:21.605Z,18.48
2019-03-26T10:53:56.176Z,19.12
2019-03-26T10:56:40.155Z,18.70
2019-03-26T10:59:13.112Z,18.70
2019-03-26T11:01:45.937Z,18.37
2019-03-26T11:04:20.466Z,19.23
2019-03-26T11:06:52.360Z,18.67
2019-03-26T11:09:29.210Z,19.42
2019-03-26T11:11:59.726Z,20.00
2019-03-26T11:14:35.926Z,20.05
2019-03-26T11:17:10.567Z,25.48
2019-03-26T11:19:46.556Z,20.82
2019-03-26T11:22:22.158Z,21.50
2019-03-26T11:24:56.907Z,20.57
2019-03-26T11:27:29.895Z,22.13
2019-03-26T11:30:05.291Z,20.85
2019-03-26T11:32:39.542Z,23.90
2019-03-26T11:35:13.864Z,22.87
2019-03-26T11:37:45.455Z,22.60
2019-03-26T11:40:19.114Z,24.37
2019-03-26T11:42:52.056Z,24.65
2019-03-26T11:45:25.681Z,23.83
2019-03-26T11:47:59.667Z,23.77
2019-03-26T11:50:33.538Z,25.12
2019-03-26T11:53:06.436Z,25.37
2019-03-26T11:55:40.971Z,24.70
2019-03-26T11:58:12.757Z,24.40
2019-03-26T12:00:48.270Z,24.77
2019-03-26T12:03:25.142Z,25.72
2019-03-26T12:05:59.500Z,27.13
2019-03-26T12:08:39.376Z,24.85
2019-03-26T12:11:11.960Z,26.57
2019-03-26T12:13:43.693Z,25.30
2019-03-26T12:16:16.539Z,25.30
2019-03-26T12:18:50.554Z,25.85
2019-03-26T12:21:28.391Z,28.57
2019-03-26T12:24:01.339Z,28.67
2019-03-26T12:26:36.946Z,27.42
2019-03-26T12:29:09.588Z,26.93
2019-03-26T12:31:45.953Z,25.60
2019-03-26T12:34:18.439Z,25.72
2019-03-26T12:36:51.181Z,26.65
2019-03-26T12:39:22.795Z,26.75
2019-03-26T12:42:03.521Z,25.52
2019-03-26T12:44:35.188Z,25.48
2019-03-26T12:47:10.884Z,24.72
2019-03-26T12:49:43.415Z,27.10
2019-03-26T12:52:21.843Z,25.37
2019-03-26T12:54:54.671Z,25.65
2019-03-26T12:57:27.366Z,25.12
2019-03-26T13:00:01.664Z,24.95
2019-03-26T13:02:36.181Z,27.17
2019-03-26T13:05:10.021Z,25.30
2019-03-26T13:07:42.723Z,26.82
2019-03-26T13:10:17.361Z,25.37
2019-03-26T13:12:51.909Z,26.73
2019-03-26T13:15:38.890Z,26.12
2019-03-26T13:18:12.029Z,26.35
2019-03-26T13:20:47.846Z,26.50
2019-03-26T13:23:20.964Z,29.60
2019-03-26T13:25:53.779Z,28.32
2019-03-26T13:28:26.378Z,26.00
2019-03-26T13:30:59.584Z,26.25
2019-03-26T13:33:32.237Z,26.40
2019-03-26T13:36:06.060Z,26.80
2019-03-26T13:38:39.566Z,26.95
2019-03-26T13:41:12.404Z,27.27
2019-03-26T13:44:01.460Z,26.80
2019-03-26T13:46:36.196Z,26.60
2019-03-26T13:49:10.982Z,27.13
2019-03-26T13:51:48.001Z,26.60
2019-03-26T13:54:21.176Z,29.35
2019-03-26T13:56:53.802Z,28.32
2019-03-26T13:59:27.426Z,28.50
2019-03-26T14:02:00.042Z,28.23
2019-03-26T14:04:33.518Z,29.92
2019-03-26T14:07:07.163Z,28.12
2019-03-26T14:09:41.744Z,28.00
2019-03-26T14:12:14.929Z,28.75
2019-03-26T14:14:48.802Z,28.45
2019-03-26T14:17:21.640Z,29.52
2019-03-26T14:19:56.508Z,28.83
2019-03-26T14:22:29.507Z,28.87
2019-03-26T14:25:02.319Z,30.72
2019-03-26T14:27:34.279Z,29.87
2019-03-26T14:30:07.338Z,30.00
2019-03-26T14:32:42.193Z,32.95
2019-03-26T14:35:13.918Z,31.27
2019-03-26T14:37:51.540Z,33.20
2019-03-26T14:40:20.699Z,32.90
2019-03-26T14:42:54.655Z,32.17
2019-03-26T14:45:30.472Z,31.02
2019-03-26T14:48:02.420Z,31.40
2019-03-26T14:50:35.307Z,28.23
2019-03-26T14:53:07.007Z,27.55
2019-03-26T14:55:43.083Z,28.02
2019-03-26T14:58:21.480Z,27.77
2019-03-26T15:00:53.201Z,25.80
2019-03-26T15:03:33.380Z,27.27
2019-03-26T15:06:11.535Z,27.15
2019-03-26T15:08:47.085Z,26.42
2019-03-26T15:11:20.782Z,27.40
2019-03-26T15:13:55.522Z,27.75
2019-03-26T15:16:27.018Z,29.10
2019-03-26T15:19:02.985Z,27.58
2019-03-26T15:21:35.991Z,27.32
2019-03-26T15:24:10.337Z,27.35
2019-03-26T15:26:45.225Z,27.40
2019-03-26T15:29:17.106Z,28.12
2019-03-26T15:31:56.159Z,26.97
2019-03-26T15:34:36.347Z,26.25
2019-03-26T15:37:09.690Z,27.48
2019-03-26T15:39:43.628Z,27.65
2019-03-26T15:42:21.547Z,29.95
2019-03-26T15:44:53.195Z,27.58
2019-03-26T15:47:25.744Z,27.58
2019-03-26T15:49:58.439Z,25.35
2019-03-26T15:52:31.221Z,27.45
2019-03-26T15:55:05.728Z,26.90
2019-03-26T15:57:40.179Z,28.20
2019-03-26T16:00:12.032Z,27.37
2019-03-26T16:02:43.953Z,26.93
2019-03-26T16:05:16.736Z,27.05
2019-03-26T16:07:48.406Z,27.67
2019-03-26T16:10:21.169Z,27.37
2019-03-26T16:12:54.050Z,26.45
2019-03-26T16:15:28.633Z,25.92
2019-03-26T16:18:03.007Z,27.55
2019-03-26T16:20:34.687Z,27.97
2019-03-26T16:23:08.529Z,27.17
2019-03-26T16:25:41.469Z,26.80
2019-03-26T16:28:14.571Z,26.50
2019-03-26T16:30:48.114Z,26.68
2019-03-26T16:33:20.864Z,27.05
2019-03-26T16:35:53.883Z,26.65
2019-03-26T16:38:26.987Z,28.42
2019-03-26T16:41:02.247Z,26.35
2019-03-26T16:46:06.670Z,26.37
2019-03-26T16:48:41.709Z,28.32
2019-03-26T16:51:16.347Z,28.30
2019-03-26T16:53:49.534Z,28.62
2019-03-26T16:56:22.462Z,27.87
2019-03-26T16:58:55.054Z,28.38
2019-03-26T17:01:27.602Z,29.20
2019-03-26T17:04:02.244Z,28.23
2019-03-26T17:06:33.999Z,28.20
2019-03-26T17:09:09.871Z,28.40
2019-03-26T17:11:42.550Z,28.02
2019-03-26T17:14:16.101Z,27.73
2019-03-26T17:16:50.806Z,28.17
2019-03-26T17:19:25.103Z,28.95
2019-03-26T17:21:58.003Z,27.73
2019-03-26T17:24:32.750Z,28.67
2019-03-26T17:27:05.562Z,28.12
2019-03-26T17:29:37.544Z,27.82
2019-03-26T17:32:10.234Z,26.80
2019-03-26T17:34:43.030Z,27.98
2019-03-26T17:37:15.589Z,27.30
2019-03-26T17:39:54.581Z,27.73
2019-03-26T17:42:26.386Z,26.90
2019-03-26T17:44:59.070Z,26.15
2019-03-26T17:47:31.690Z,27.00
2019-03-26T17:50:04.619Z,27.13
2019-03-26T17:52:38.543Z,27.70
2019-03-26T17:55:13.137Z,28.52
2019-03-26T17:57:45.534Z,29.55
2019-03-26T18:00:23.540Z,27.32
2019-03-26T18:02:55.151Z,27.27
2019-03-26T18:05:34.479Z,28.77
2019-03-26T18:08:07.117Z,28.20
2019-03-26T18:10:41.769Z,29.82
2019-03-26T18:13:14.420Z,28.50
2019-03-26T18:15:52.852Z,28.17
2019-03-26T18:18:24.381Z,27.20
2019-03-26T18:20:57.490Z,27.55
2019-03-26T18:23:29.061Z,27.02
2019-03-26T18:26:01.874Z,27.62
2019-03-26T18:28:35.163Z,27.05
2019-03-26T18:31:08.478Z,26.00
2019-03-26T18:33:40.027Z,26.77
2019-03-26T18:36:12.225Z,25.43
2019-03-26T18:38:45.308Z,26.50
2019-03-26T18:41:18.101Z,27.75
2019-03-26T18:43:49.650Z,26.50
2019-03-26T18:46:22.572Z,27.20
2019-03-26T18:48:55.057Z,26.60
2019-03-26T18:51:28.053Z,27.73
2019-03-26T18:54:00.749Z,26.93
2019-03-26T18:56:33.458Z,27.13
2019-03-26T18:59:06.027Z,28.02
2019-03-26T19:01:41.439Z,27.98
2019-03-26T19:04:14.012Z,27.35
2019-03-26T19:06:46.824Z,28.25
2019-03-26T19:09:22.240Z,27.77
2019-03-26T19:11:54.954Z,27.02
2019-03-26T19:14:28.129Z,26.77
2019-03-26T19:16:59.718Z,27.13
2019-03-26T19:19:31.363Z,27.05
2019-03-26T19:22:03.981Z,26.68
2019-03-26T19:24:36.430Z,27.13
2019-03-26T19:27:08.306Z,27.80
2019-03-26T19:29:41.003Z,29.57
2019-03-26T19:32:13.931Z,27.87
2019-03-26T19:34:49.761Z,27.48
2019-03-26T19:37:22.667Z,27.82
2019-03-26T19:39:56.303Z,28.27
2019-03-26T19:42:29.072Z,28.80
2019-03-26T19:45:01.587Z,28.17
2019-03-26T19:47:37.162Z,27.77
2019-03-26T19:50:14.490Z,28.62
2019-03-26T19:52:52.458Z,27.62
2019-03-26T19:55:26.120Z,27.98
2019-03-26T19:58:00.736Z,28.42
2019-03-26T20:00:32.505Z,28.83
2019-03-26T20:03:05.640Z,27.22
2019-03-26T20:05:38.381Z,27.98
2019-03-26T20:08:11.741Z,27.45
2019-03-26T20:10:46.170Z,27.62
2019-03-26T20:13:24.451Z,27.27
2019-03-26T20:15:52.792Z,28.10
2019-03-26T20:18:25.676Z,26.60
2019-03-26T20:20:57.526Z,28.50
2019-03-26T20:23:30.034Z,28.52
2019-03-26T20:26:02.958Z,26.80
2019-03-26T20:28:37.608Z,25.60
2019-03-26T20:31:11.196Z,28.00
2019-03-26T20:33:43.187Z,28.67
2019-03-26T20:36:17.952Z,29.02
2019-03-26T20:38:54.600Z,28.85
2019-03-26T20:41:26.436Z,30.60
2019-03-26T20:43:58.408Z,30.75
2019-03-26T20:46:29.979Z,31.15
2019-03-26T20:49:04.521Z,29.27
2019-03-26T20:51:37.227Z,29.43
2019-03-26T20:54:10.278Z,30.40
2019-03-26T20:56:43.234Z,31.87
2019-03-26T20:59:15.902Z,32.03
2019-03-26T21:01:48.506Z,31.70
2019-03-26T21:04:20.238Z,30.85
2019-03-26T21:06:51.975Z,29.48
2019-03-26T21:09:23.456Z,29.57
2019-03-26T21:11:56.195Z,29.65
2019-03-26T21:14:30.495Z,30.30
2019-03-26T21:17:02.405Z,30.17
2019-03-26T21:19:34.034Z,30.55
2019-03-26T21:22:05.897Z,30.48
2019-03-26T21:24:38.456Z,29.85
2019-03-26T21:27:10.342Z,29.30
2019-03-26T21:29:41.921Z,27.17
2019-03-26T21:32:13.499Z,26.87
2019-03-26T21:34:47.465Z,28.80
2019-03-26T21:37:19.226Z,27.13
2019-03-26T21:39:50.779Z,28.38
2019-03-26T21:42:22.639Z,27.07
2019-03-26T21:44:54.226Z,26.97
2019-03-26T21:47:26.002Z,27.22
2019-03-26T21:49:58.543Z,28.20
2019-03-26T21:52:30.234Z,28.45
2019-03-26T21:55:01.796Z,26.93
2019-03-26T21:57:34.095Z,28.10
2019-03-26T22:00:08.262Z,27.13
2019-03-26T22:02:39.897Z,27.32
2019-03-26T22:05:12.462Z,28.62
2019-03-26T22:07:44.040Z,27.37
2019-03-26T22:10:18.979Z,27.75
2019-03-26T22:12:50.575Z,29.07
2019-03-26T22:15:22.208Z,43.40
2019-03-26T22:17:54.140Z,30.17
2019-03-26T22:20:26.929Z,27.30
2019-03-26T22:22:59.066Z,28.52
2019-03-26T22:25:31.666Z,29.18
2019-03-26T22:28:04.686Z,30.17
2019-03-26T22:30:36.253Z,31.50
2019-03-26T22:33:08.942Z,33.15
2019-03-26T22:35:42.746Z,35.13
2019-03-26T22:38:15.556Z,33.70
2019-03-26T22:40:47.490Z,33.85
2019-03-26T22:43:19.455Z,35.73
2019-03-26T22:45:51.179Z,35.85
2019-03-26T22:48:22.606Z,34.10
2019-03-26T22:50:55.344Z,34.33
2019-03-26T22:53:26.849Z,33.65
2019-03-26T22:55:59.794Z,33.58
2019-03-26T22:58:31.458Z,34.90
2019-03-26T23:01:03.351Z,33.48
2019-03-26T23:03:35.842Z,34.08
2019-03-26T23:06:07.632Z,33.50
2019-03-26T23:08:40.498Z,33.85
2019-03-26T23:11:12.462Z,36.25
2019-03-26T23:13:45.002Z,37.75
2019-03-26T23:16:18.060Z,41.20
2019-03-26T23:18:50.634Z,41.28
2019-03-26T23:21:23.514Z,60.35
2019-03-26T23:23:56.138Z,49.05
2019-03-26T23:26:29.836Z,48.55
2019-03-26T23:29:02.765Z,44.50
2019-03-26T23:31:37.037Z,45.58
2019-03-26T23:34:08.666Z,43.85
2019-03-26T23:36:40.774Z,42.30
2019-03-26T23:39:12.481Z,43.60
2019-03-26T23:41:45.209Z,46.88
2019-03-26T23:44:25.779Z,63.13
2019-03-26T23:46:49.784Z,60.83
2019-03-26T23:49:24.526Z,55.83
2019-03-26T23:51:58.569Z,60.98
2019-03-26T23:54:33.752Z,66.60
2019-03-26T23:57:06.463Z,54.90
2019-03-26T23:59:38.420Z,59.88
